Time;durP1;ratioP1;P1;durP2;ratioP2;P2;SDS_P1;SDS_P2;PMS_P1;PMS_P2;Temp;Humidity;BMP_temperature;BMP_pressure;BME280_temperature;BME280_humidity;BME280_pressure;Samples;Min_cycle;Max_cycle;Signal;HPM_P1;HPM_P2
2024/01/25 00:00:28;;;;;;;38.10;6.30;;;;;;;;;;5057857;28;20059;-81
2024/01/25 00:02:54;;;;;;;41.83;6.43;;;;;;;;;;5063500;28;20044;-81
2024/01/25 00:05:21;;;;;;;39.63;5.60;;;;;;;;;;5063818;28;20056;-81
2024/01/25 00:07:47;;;;;;;37.20;6.60;;;;;;;;;;5059875;28;20048;-81
2024/01/25 00:10:14;;;;;;;36.65;6.75;;;;;;;;;;5065328;28;20494;-81
2024/01/25 00:12:41;;;;;;;37.05;6.32;;;;;;;;;;5066096;28;20430;-81
2024/01/25 00:15:07;;;;;;;35.08;5.78;;;;;;;;;;5061678;28;20049;-81
2024/01/25 00:17:33;;;;;;;42.05;6.60;;;;;;;;;;5057348;28;20045;-81
2024/01/25 00:19:59;;;;;;;38.80;5.50;;;;;;;;;;5055207;28;20055;-81
2024/01/25 00:22:26;;;;;;;39.65;7.30;;;;;;;;;;5079394;28;20059;-81
2024/01/25 00:24:52;;;;;;;36.60;6.40;;;;;;;;;;5058112;28;20119;-81
2024/01/25 00:27:18;;;;;;;32.60;5.35;;;;;;;;;;5062297;28;20044;-81
2024/01/25 00:29:46;;;;;;;35.63;5.68;;;;;;;;;;5065290;28;20049;-81
2024/01/25 00:32:12;;;;;;;46.05;6.82;;;;;;;;;;5064905;28;20048;-81
2024/01/25 00:34:39;;;;;;;33.05;6.93;;;;;;;;;;5065587;28;20064;-81
2024/01/25 00:37:05;;;;;;;35.13;7.07;;;;;;;;;;5063356;28;20049;-81
2024/01/25 00:39:31;;;;;;;36.45;5.68;;;;;;;;;;5058136;28;20037;-82
2024/01/25 00:42:04;;;;;;;42.83;6.50;;;;;;;;;;5064623;28;20067;-81
2024/01/25 00:44:30;;;;;;;38.60;6.03;;;;;;;;;;5056099;28;20053;-80
2024/01/25 00:46:56;;;;;;;35.88;6.13;;;;;;;;;;5049272;28;20097;-82
2024/01/25 00:49:22;;;;;;;41.13;5.47;;;;;;;;;;5060512;28;20125;-81
2024/01/25 00:51:56;;;;;;;36.72;5.25;;;;;;;;;;5059145;28;20037;-81
2024/01/25 00:54:22;;;;;;;36.15;5.57;;;;;;;;;;5064226;28;20049;-82
2024/01/25 00:56:50;;;;;;;31.15;4.90;;;;;;;;;;5063009;28;20060;-82
2024/01/25 00:59:17;;;;;;;33.63;5.57;;;;;;;;;;5064714;28;20059;-81
2024/01/25 01:01:45;;;;;;;39.80;5.97;;;;;;;;;;5064248;28;20056;-81
2024/01/25 01:04:11;;;;;;;43.10;6.63;;;;;;;;;;5063561;28;20041;-81
2024/01/25 01:06:37;;;;;;;35.22;6.45;;;;;;;;;;5064386;28;20053;-81
2024/01/25 01:09:03;;;;;;;39.08;6.20;;;;;;;;;;5064972;28;20045;-81
2024/01/25 01:11:30;;;;;;;40.88;6.30;;;;;;;;;;5048789;28;20380;-81
2024/01/25 01:13:56;;;;;;;32.40;6.05;;;;;;;;;;5048337;28;20067;-81
2024/01/25 01:16:22;;;;;;;42.55;6.32;;;;;;;;;;5060395;28;20065;-81
2024/01/25 01:18:48;;;;;;;36.00;5.70;;;;;;;;;;5063300;28;20037;-81
2024/01/25 01:21:14;;;;;;;40.88;5.85;;;;;;;;;;5076090;28;20399;-81
2024/01/25 01:23:40;;;;;;;38.08;6.18;;;;;;;;;;5053694;28;20115;-83
2024/01/25 01:26:08;;;;;;;46.85;5.80;;;;;;;;;;5064790;28;20041;-80
2024/01/25 01:28:35;;;;;;;41.10;7.10;;;;;;;;;;5063496;28;20041;-80
2024/01/25 01:31:02;;;;;;;40.08;6.20;;;;;;;;;;5063356;28;20052;-79
2024/01/25 01:33:28;;;;;;;39.35;6.65;;;;;;;;;;5052604;28;20046;-81
2024/01/25 01:35:54;;;;;;;43.00;6.57;;;;;;;;;;5059755;28;20044;-80
2024/01/25 01:38:20;;;;;;;33.03;6.35;;;;;;;;;;5065209;28;20041;-81
2024/01/25 01:40:46;;;;;;;37.42;5.72;;;;;;;;;;5065195;28;20041;-80
2024/01/25 01:43:23;;;;;;;41.92;6.47;;;;;;;;;;5053724;28;20056;-80
2024/01/25 01:45:49;;;;;;;44.00;6.50;;;;;;;;;;5064949;28;20104;-80
2024/01/25 01:48:15;;;;;;;46.40;6.85;;;;;;;;;;5063309;28;20044;-81
2024/01/25 01:50:42;;;;;;;38.58;6.47;;;;;;;;;;5052978;28;20055;-80
2024/01/25 01:53:08;;;;;;;32.13;5.40;;;;;;;;;;5061894;28;20076;-81
2024/01/25 01:55:34;;;;;;;36.40;6.15;;;;;;;;;;5063846;28;20116;-80
2024/01/25 01:58:00;;;;;;;44.00;6.30;;;;;;;;;;5052152;28;20042;-80
2024/01/25 02:00:27;;;;;;;36.78;5.85;;;;;;;;;;5062765;28;20045;-80
2024/01/25 02:02:53;;;;;;;41.28;6.30;;;;;;;;;;5063430;28;20052;-80
2024/01/25 02:05:19;;;;;;;37.28;6.20;;;;;;;;;;5063455;28;20390;-81
2024/01/25 02:07:45;;;;;;;42.45;6.63;;;;;;;;;;5054247;28;20536;-80
2024/01/25 02:10:12;;;;;;;39.13;5.90;;;;;;;;;;5062338;28;20041;-80
2024/01/25 02:12:38;;;;;;;43.72;6.55;;;;;;;;;;5062894;28;20041;-80
2024/01/25 02:15:04;;;;;;;48.80;6.60;;;;;;;;;;5060253;28;20053;-80
2024/01/25 02:17:31;;;;;;;43.83;7.05;;;;;;;;;;5063382;28;20049;-80
2024/01/25 02:19:57;;;;;;;40.17;5.72;;;;;;;;;;5064150;28;20058;-80
2024/01/25 02:22:23;;;;;;;41.72;6.15;;;;;;;;;;5062995;28;20502;-80
2024/01/25 02:24:49;;;;;;;40.78;6.93;;;;;;;;;;5059856;28;20037;-80
2024/01/25 02:27:15;;;;;;;42.75;5.30;;;;;;;;;;5062446;28;20124;-80
2024/01/25 02:29:41;;;;;;;46.35;8.10;;;;;;;;;;5064280;28;20052;-80
2024/01/25 02:32:07;;;;;;;42.95;6.75;;;;;;;;;;5064804;28;20040;-80
2024/01/25 02:34:33;;;;;;;51.90;7.22;;;;;;;;;;5066475;28;20053;-80
2024/01/25 02:36:59;;;;;;;44.33;6.22;;;;;;;;;;5064204;28;20053;-80
2024/01/25 02:39:25;;;;;;;39.33;6.03;;;;;;;;;;5063403;28;20087;-80
2024/01/25 02:41:51;;;;;;;38.85;7.03;;;;;;;;;;5060072;28;20049;-80
2024/01/25 02:44:17;;;;;;;40.10;5.70;;;;;;;;;;5061326;28;20044;-80
2024/01/25 02:46:44;;;;;;;42.63;6.75;;;;;;;;;;5061763;28;20037;-80
2024/01/25 02:49:10;;;;;;;43.45;7.22;;;;;;;;;;5063961;28;20049;-80
2024/01/25 02:51:37;;;;;;;40.30;6.93;;;;;;;;;;5057885;28;20049;-80
2024/01/25 02:54:03;;;;;;;43.60;6.65;;;;;;;;;;5062002;28;20088;-80
2024/01/25 02:56:34;;;;;;;43.03;5.88;;;;;;;;;;5063298;28;20052;-80
2024/01/25 02:59:01;;;;;;;43.33;6.80;;;;;;;;;;5061343;28;20057;-80
2024/01/25 03:01:27;;;;;;;48.60;6.38;;;;;;;;;;5061491;28;20077;-80
2024/01/25 03:03:53;;;;;;;49.47;7.30;;;;;;;;;;5061850;28;20049;-80
2024/01/25 03:06:20;;;;;;;54.92;8.50;;;;;;;;;;5059317;28;20105;-80
2024/01/25 03:08:46;;;;;;;41.08;6.43;;;;;;;;;;5053879;28;20041;-80
2024/01/25 03:11:12;;;;;;;46.33;6.30;;;;;;;;;;5062577;28;20063;-81
2024/01/25 03:13:38;;;;;;;41.40;6.47;;;;;;;;;;5057599;28;20049;-81
2024/01/25 03:16:04;;;;;;;49.25;6.95;;;;;;;;;;5061578;28;20139;-80
2024/01/25 03:18:30;;;;;;;48.85;7.70;;;;;;;;;;5055329;28;20037;-80
2024/01/25 03:20:56;;;;;;;48.33;6.47;;;;;;;;;;5057593;28;20041;-80
2024/01/25 03:23:22;;;;;;;41.28;6.43;;;;;;;;;;5050106;28;20045;-80
2024/01/25 03:25:48;;;;;;;42.53;6.35;;;;;;;;;;5057593;28;20049;-80
2024/01/25 03:28:16;;;;;;;43.53;6.18;;;;;;;;;;5062805;28;20048;-80
2024/01/25 03:30:42;;;;;;;47.50;6.82;;;;;;;;;;5055220;28;20071;-80
2024/01/25 03:33:08;;;;;;;47.35;6.40;;;;;;;;;;5061914;28;20049;-80
2024/01/25 03:35:34;;;;;;;44.17;6.18;;;;;;;;;;5061486;28;20048;-80
2024/01/25 03:38:00;;;;;;;50.88;6.75;;;;;;;;;;5065500;28;20056;-80
2024/01/25 03:40:26;;;;;;;42.53;6.05;;;;;;;;;;5063588;28;20102;-80
2024/01/25 03:42:52;;;;;;;47.72;6.55;;;;;;;;;;5060709;28;20132;-80
2024/01/25 03:45:18;;;;;;;48.60;6.65;;;;;;;;;;5067080;28;20068;-80
2024/01/25 03:47:44;;;;;;;44.58;6.38;;;;;;;;;;5063635;28;20049;-80
2024/01/25 03:50:10;;;;;;;45.17;7.05;;;;;;;;;;5066366;28;20045;-80
2024/01/25 03:52:36;;;;;;;49.05;6.22;;;;;;;;;;5054210;28;20123;-80
2024/01/25 03:55:03;;;;;;;41.50;6.05;;;;;;;;;;5061098;28;20057;-80
2024/01/25 03:57:29;;;;;;;43.30;6.25;;;;;;;;;;5046173;28;20073;-80
2024/01/25 03:59:55;;;;;;;42.60;5.97;;;;;;;;;;5064388;28;20692;-81
2024/01/25 04:02:21;;;;;;;40.63;6.05;;;;;;;;;;5051091;28;20502;-80
2024/01/25 04:04:47;;;;;;;43.92;6.50;;;;;;;;;;5061524;28;20068;-80
2024/01/25 04:07:13;;;;;;;46.88;6.35;;;;;;;;;;5071055;28;20103;-80
2024/01/25 04:09:40;;;;;;;39.15;6.50;;;;;;;;;;5056647;28;20048;-80
2024/01/25 04:12:06;;;;;;;45.28;6.30;;;;;;;;;;5057276;28;20048;-80
2024/01/25 04:14:32;;;;;;;42.67;6.60;;;;;;;;;;5056855;28;20045;-80
2024/01/25 04:16:59;;;;;;;40.78;5.95;;;;;;;;;;5053965;28;20484;-81
2024/01/25 04:19:25;;;;;;;46.28;7.10;;;;;;;;;;5048972;28;20096;-80
2024/01/25 04:21:51;;;;;;;49.83;6.30;;;;;;;;;;5049008;28;20049;-80
2024/01/25 04:24:17;;;;;;;47.72;6.78;;;;;;;;;;5063294;28;20041;-80
2024/01/25 04:26:46;;;;;;;44.35;6.78;;;;;;;;;;5053820;28;20092;-80
2024/01/25 04:29:12;;;;;;;50.45;7.00;;;;;;;;;;5050447;28;20063;-80
2024/01/25 04:31:45;;;;;;;46.38;6.55;;;;;;;;;;5059675;28;20041;-81
2024/01/25 04:34:11;;;;;;;46.10;6.03;;;;;;;;;;5059715;28;20049;-80
2024/01/25 04:36:37;;;;;;;33.78;5.53;;;;;;;;;;5059627;28;20059;-80
2024/01/25 04:39:03;;;;;;;50.78;7.05;;;;;;;;;;5060113;28;20045;-81
2024/01/25 04:41:29;;;;;;;43.97;6.07;;;;;;;;;;5061533;28;20049;-81
2024/01/25 04:43:55;;;;;;;47.03;6.88;;;;;;;;;;5060659;28;20122;-80
2024/01/25 04:46:21;;;;;;;38.90;6.15;;;;;;;;;;5060466;28;20045;-80
2024/01/25 04:48:47;;;;;;;41.70;5.80;;;;;;;;;;5056216;28;20041;-81
2024/01/25 04:51:17;;;;;;;49.28;5.72;;;;;;;;;;5051907;28;20376;-80
2024/01/25 04:53:44;;;;;;;39.70;5.68;;;;;;;;;;5059869;28;20044;-80
2024/01/25 04:56:10;;;;;;;45.83;6.38;;;;;;;;;;5061344;28;20045;-81
2024/01/25 04:58:36;;;;;;;48.90;6.28;;;;;;;;;;5061200;28;20041;-81
2024/01/25 05:01:02;;;;;;;37.65;5.45;;;;;;;;;;5061047;28;20061;-80
2024/01/25 05:03:28;;;;;;;49.78;6.85;;;;;;;;;;5054723;28;20041;-80
2024/01/25 05:05:54;;;;;;;37.15;6.57;;;;;;;;;;5051245;28;20048;-80
2024/01/25 05:08:20;;;;;;;45.60;6.45;;;;;;;;;;5060573;28;20051;-81
2024/01/25 05:10:46;;;;;;;38.95;5.95;;;;;;;;;;5062218;28;20076;-80
2024/01/25 05:13:12;;;;;;;45.45;5.97;;;;;;;;;;5062262;28;20056;-80
2024/01/25 05:15:38;;;;;;;56.05;6.90;;;;;;;;;;5061285;28;20041;-80
2024/01/25 05:18:05;;;;;;;46.00;6.68;;;;;;;;;;5061665;28;20048;-81
2024/01/25 05:20:32;;;;;;;44.35;6.28;;;;;;;;;;5073437;28;20052;-81
2024/01/25 05:23:02;;;;;;;40.95;6.00;;;;;;;;;;5061454;28;20045;-81
2024/01/25 05:25:28;;;;;;;50.92;6.53;;;;;;;;;;5062205;28;20041;-80
2024/01/25 05:27:55;;;;;;;37.78;5.95;;;;;;;;;;5061424;28;20044;-80
2024/01/25 05:30:21;;;;;;;47.67;6.07;;;;;;;;;;5061055;28;20045;-80
2024/01/25 05:32:49;;;;;;;46.75;7.20;;;;;;;;;;5062102;28;20041;-80
2024/01/25 05:35:15;;;;;;;45.03;6.22;;;;;;;;;;5053309;28;20405;-81
2024/01/25 05:37:41;;;;;;;40.20;6.47;;;;;;;;;;5060320;28;20072;-80
2024/01/25 05:40:10;;;;;;;43.67;7.18;;;;;;;;;;5052854;28;20057;-80
2024/01/25 05:42:36;;;;;;;43.95;6.05;;;;;;;;;;5055168;28;20491;-80
2024/01/25 05:45:03;;;;;;;41.38;6.03;;;;;;;;;;5054115;28;20052;-79
2024/01/25 05:47:30;;;;;;;44.95;6.75;;;;;;;;;;5062049;28;20045;-80
2024/01/25 05:49:56;;;;;;;45.00;7.07;;;;;;;;;;5059361;28;20064;-80
2024/01/25 05:52:23;;;;;;;45.08;5.78;;;;;;;;;;5052048;28;20570;-80
2024/01/25 05:54:49;;;;;;;48.30;6.65;;;;;;;;;;5060886;28;20045;-79
2024/01/25 05:57:16;;;;;;;48.08;6.30;;;;;;;;;;5061539;28;20051;-80
2024/01/25 05:59:45;;;;;;;39.38;6.32;;;;;;;;;;5058649;28;20056;-80
2024/01/25 06:02:12;;;;;;;40.85;5.93;;;;;;;;;;5051940;28;20049;-80
2024/01/25 06:04:38;;;;;;;42.53;6.60;;;;;;;;;;5054332;28;20044;-80
2024/01/25 06:07:04;;;;;;;41.50;6.10;;;;;;;;;;5049164;28;20549;-80
2024/01/25 06:09:31;;;;;;;57.97;7.40;;;;;;;;;;5055345;28;20040;-80
2024/01/25 06:11:57;;;;;;;58.58;6.63;;;;;;;;;;5055892;28;20045;-80
2024/01/25 06:14:24;;;;;;;46.92;6.68;;;;;;;;;;5056811;28;20037;-80
2024/01/25 06:16:50;;;;;;;39.88;5.90;;;;;;;;;;5059343;28;20126;-80
2024/01/25 06:19:16;;;;;;;41.25;6.45;;;;;;;;;;5061192;28;20044;-80
2024/01/25 06:21:42;;;;;;;43.22;6.03;;;;;;;;;;5057456;28;20056;-80
2024/01/25 06:24:08;;;;;;;45.35;7.22;;;;;;;;;;5054342;28;20041;-79
2024/01/25 06:26:34;;;;;;;49.72;6.35;;;;;;;;;;5041715;28;20533;-80
2024/01/25 06:29:00;;;;;;;42.22;6.40;;;;;;;;;;5058100;28;20045;-80
2024/01/25 06:31:27;;;;;;;46.00;6.32;;;;;;;;;;5057970;28;20044;-80
2024/01/25 06:33:53;;;;;;;49.10;7.03;;;;;;;;;;5058120;28;20036;-80
2024/01/25 06:36:20;;;;;;;41.15;6.20;;;;;;;;;;5058359;28;20125;-80
2024/01/25 06:38:46;;;;;;;44.85;6.15;;;;;;;;;;5056237;28;20163;-80
2024/01/25 06:41:12;;;;;;;45.33;6.20;;;;;;;;;;5065194;28;20060;-79
2024/01/25 06:43:40;;;;;;;45.47;6.65;;;;;;;;;;5058051;28;20041;-80
2024/01/25 06:46:06;;;;;;;53.97;7.20;;;;;;;;;;5056312;28;20045;-80
2024/01/25 06:48:33;;;;;;;53.25;6.53;;;;;;;;;;5051819;28;20037;-80
2024/01/25 06:50:59;;;;;;;41.53;6.22;;;;;;;;;;5059875;28;20032;-79
2024/01/25 06:53:25;;;;;;;48.90;6.18;;;;;;;;;;5056700;28;20036;-81
2024/01/25 06:55:51;;;;;;;50.55;6.22;;;;;;;;;;5051006;28;20048;-80
2024/01/25 06:58:17;;;;;;;58.97;7.22;;;;;;;;;;5059780;28;20049;-80
2024/01/25 07:00:46;;;;;;;52.65;6.80;;;;;;;;;;5047959;28;20495;-82
2024/01/25 07:03:12;;;;;;;50.08;6.90;;;;;;;;;;5046892;28;20379;-81
2024/01/25 07:05:38;;;;;;;50.03;6.63;;;;;;;;;;5057150;28;20048;-80
2024/01/25 07:08:04;;;;;;;46.35;6.90;;;;;;;;;;5063387;28;20090;-80
2024/01/25 07:10:31;;;;;;;57.58;7.40;;;;;;;;;;5079329;28;20048;-79
2024/01/25 07:12:57;;;;;;;46.08;6.40;;;;;;;;;;5065193;28;20036;-80
2024/01/25 07:15:23;;;;;;;42.10;6.20;;;;;;;;;;5060555;28;20048;-80
2024/01/25 07:17:50;;;;;;;43.20;6.45;;;;;;;;;;5062089;28;20411;-80
2024/01/25 07:20:16;;;;;;;54.10;6.85;;;;;;;;;;5062067;28;20041;-80
2024/01/25 07:22:42;;;;;;;47.75;6.78;;;;;;;;;;5063934;28;20052;-80
2024/01/25 07:25:11;;;;;;;50.83;7.75;;;;;;;;;;5061960;28;20067;-80
2024/01/25 07:27:37;;;;;;;46.22;6.93;;;;;;;;;;5062099;28;20037;-80
2024/01/25 07:30:03;;;;;;;43.47;6.68;;;;;;;;;;5062037;28;20520;-80
2024/01/25 07:32:29;;;;;;;46.55;7.45;;;;;;;;;;5061125;28;20486;-80
2024/01/25 07:34:55;;;;;;;43.35;6.57;;;;;;;;;;5061635;28;20506;-79
2024/01/25 07:37:21;;;;;;;58.97;7.32;;;;;;;;;;5045030;28;20045;-79
2024/01/25 07:39:47;;;;;;;55.20;7.40;;;;;;;;;;5058662;28;20061;-80
2024/01/25 07:42:13;;;;;;;52.97;6.50;;;;;;;;;;5062158;28;20045;-80
2024/01/25 07:44:39;;;;;;;51.72;6.47;;;;;;;;;;5061740;28;20053;-81
2024/01/25 07:47:05;;;;;;;43.58;6.47;;;;;;;;;;5061152;28;20049;-80
2024/01/25 07:49:32;;;;;;;47.50;7.03;;;;;;;;;;5061019;28;20404;-80
2024/01/25 07:51:58;;;;;;;54.17;7.45;;;;;;;;;;5067127;28;20052;-80
2024/01/25 07:54:24;;;;;;;53.85;6.97;;;;;;;;;;5081481;28;20050;-80
2024/01/25 07:56:51;;;;;;;57.53;7.20;;;;;;;;;;5063270;28;20101;-79
2024/01/25 07:59:17;;;;;;;51.83;7.20;;;;;;;;;;5060530;28;20063;-80
2024/01/25 08:01:46;;;;;;;48.28;6.72;;;;;;;;;;5077986;28;20057;-80
2024/01/25 08:04:12;;;;;;;49.15;7.43;;;;;;;;;;5080397;28;20058;-81
2024/01/25 08:06:38;;;;;;;49.67;7.65;;;;;;;;;;5064207;28;20044;-80
2024/01/25 08:09:04;;;;;;;69.80;8.07;;;;;;;;;;5060887;28;20116;-80
2024/01/25 08:11:30;;;;;;;57.72;8.40;;;;;;;;;;5062546;28;20052;-80
2024/01/25 08:13:57;;;;;;;54.85;6.80;;;;;;;;;;5063175;28;20056;-80
2024/01/25 08:16:23;;;;;;;45.00;6.82;;;;;;;;;;5061911;28;20052;-80
2024/01/25 08:18:49;;;;;;;49.70;6.93;;;;;;;;;;5063086;28;20055;-80
2024/01/25 08:21:16;;;;;;;45.97;7.10;;;;;;;;;;5074709;28;20037;-80
2024/01/25 08:23:42;;;;;;;52.88;7.28;;;;;;;;;;5048452;28;20148;-80
2024/01/25 08:26:09;;;;;;;47.55;6.75;;;;;;;;;;5060438;28;20048;-80
2024/01/25 08:28:38;;;;;;;42.47;6.70;;;;;;;;;;5053444;28;20037;-80
2024/01/25 08:31:04;;;;;;;50.63;6.15;;;;;;;;;;5051179;28;20065;-81
2024/01/25 08:33:31;;;;;;;56.17;7.43;;;;;;;;;;5061097;28;20040;-80
2024/01/25 08:35:57;;;;;;;40.03;6.93;;;;;;;;;;5061712;28;20044;-80
2024/01/25 08:38:23;;;;;;;48.08;6.57;;;;;;;;;;5061138;28;20132;-80
2024/01/25 08:40:49;;;;;;;40.35;6.95;;;;;;;;;;5060647;28;20483;-80
2024/01/25 08:43:15;;;;;;;47.53;7.03;;;;;;;;;;5061877;28;20415;-80
2024/01/25 08:45:41;;;;;;;53.85;7.07;;;;;;;;;;5061146;28;20399;-80
2024/01/25 08:48:08;;;;;;;52.35;6.60;;;;;;;;;;5060174;28;20071;-80
2024/01/25 08:50:35;;;;;;;50.53;7.28;;;;;;;;;;5061659;28;20091;-80
2024/01/25 08:53:01;;;;;;;46.40;6.68;;;;;;;;;;5060674;28;20052;-80
2024/01/25 08:55:27;;;;;;;60.38;8.32;;;;;;;;;;5060733;28;20051;-80
2024/01/25 08:57:53;;;;;;;54.08;7.65;;;;;;;;;;5061253;28;20053;-80
2024/01/25 09:00:19;;;;;;;43.72;7.65;;;;;;;;;;5061138;28;20045;-80
2024/01/25 09:02:46;;;;;;;45.63;7.53;;;;;;;;;;5059828;28;20094;-80
2024/01/25 09:05:12;;;;;;;58.55;7.65;;;;;;;;;;5060997;28;20128;-80
2024/01/25 09:07:38;;;;;;;49.13;7.57;;;;;;;;;;5058253;28;20049;-80
2024/01/25 09:10:05;;;;;;;57.50;7.70;;;;;;;;;;5049517;28;20037;-80
2024/01/25 09:12:31;;;;;;;46.83;7.15;;;;;;;;;;5060956;28;20097;-81
2024/01/25 09:14:57;;;;;;;53.55;7.82;;;;;;;;;;5060957;28;20048;-81
2024/01/25 09:17:23;;;;;;;46.83;8.30;;;;;;;;;;5060805;28;20041;-81
2024/01/25 09:19:50;;;;;;;49.08;8.13;;;;;;;;;;5058235;28;20090;-81
2024/01/25 09:22:18;;;;;;;56.35;8.40;;;;;;;;;;5060452;28;20064;-81
2024/01/25 09:24:44;;;;;;;42.97;7.88;;;;;;;;;;5061793;28;20099;-80
2024/01/25 09:27:11;;;;;;;48.45;7.22;;;;;;;;;;5077752;28;20056;-80
2024/01/25 09:29:38;;;;;;;45.50;7.63;;;;;;;;;;5077835;28;20048;-80
2024/01/25 09:32:04;;;;;;;46.10;7.80;;;;;;;;;;5061587;28;20048;-81
2024/01/25 09:34:30;;;;;;;53.47;7.28;;;;;;;;;;5059464;28;20045;-80
2024/01/25 09:36:56;;;;;;;47.92;6.88;;;;;;;;;;5061536;28;20052;-80
2024/01/25 09:39:22;;;;;;;51.75;8.23;;;;;;;;;;5057295;28;20063;-81
2024/01/25 09:41:49;;;;;;;44.47;7.43;;;;;;;;;;5054442;28;20048;-80
2024/01/25 09:44:17;;;;;;;41.92;6.95;;;;;;;;;;5061003;28;20127;-81
2024/01/25 09:46:44;;;;;;;44.95;7.03;;;;;;;;;;5060134;28;20049;-81
2024/01/25 09:49:10;;;;;;;51.03;7.80;;;;;;;;;;5057679;28;20048;-80
2024/01/25 09:51:41;;;;;;;53.78;7.75;;;;;;;;;;5076869;28;20064;-81
2024/01/25 09:54:07;;;;;;;50.53;8.15;;;;;;;;;;5065747;28;20067;-81
2024/01/25 09:56:34;;;;;;;51.95;7.63;;;;;;;;;;5060709;28;20155;-81
2024/01/25 09:59:01;;;;;;;46.50;7.75;;;;;;;;;;5062132;28;20081;-81
2024/01/25 10:01:27;;;;;;;42.78;7.32;;;;;;;;;;5060063;28;20080;-81
2024/01/25 10:03:56;;;;;;;44.00;7.15;;;;;;;;;;5059101;28;20049;-81
2024/01/25 10:06:22;;;;;;;46.65;7.82;;;;;;;;;;5063032;28;20094;-81
2024/01/25 10:08:48;;;;;;;47.78;8.27;;;;;;;;;;5059999;28;20045;-81
2024/01/25 10:11:14;;;;;;;47.80;8.70;;;;;;;;;;5059277;28;20059;-81
2024/01/25 10:13:50;;;;;;;53.20;7.97;;;;;;;;;;5061242;28;20372;-81
2024/01/25 10:16:20;;;;;;;50.35;7.97;;;;;;;;;;5054995;28;20819;-82
2024/01/25 10:18:51;;;;;;;51.33;8.15;;;;;;;;;;5060574;28;20499;-81
2024/01/25 10:21:17;;;;;;;37.45;7.18;;;;;;;;;;5059838;28;20490;-81
2024/01/25 10:23:48;;;;;;;48.53;8.07;;;;;;;;;;5058963;28;20450;-81
2024/01/25 10:26:14;;;;;;;39.88;8.45;;;;;;;;;;5059289;28;20374;-81
2024/01/25 10:28:40;;;;;;;48.25;8.35;;;;;;;;;;5058321;28;20045;-81
2024/01/25 10:31:07;;;;;;;50.90;8.15;;;;;;;;;;5064405;28;20548;-80
2024/01/25 10:33:36;;;;;;;50.30;7.55;;;;;;;;;;5065811;28;20088;-81
2024/01/25 10:36:02;;;;;;;41.78;7.97;;;;;;;;;;5056363;28;20048;-81
2024/01/25 10:38:31;;;;;;;49.30;8.32;;;;;;;;;;5056559;28;20525;-81
2024/01/25 10:41:01;;;;;;;47.58;8.38;;;;;;;;;;5059346;28;20048;-81
2024/01/25 10:43:27;;;;;;;49.95;8.32;;;;;;;;;;5059093;28;20061;-82
2024/01/25 10:45:55;;;;;;;48.92;7.78;;;;;;;;;;5058862;28;20047;-81
2024/01/25 10:48:22;;;;;;;45.50;7.55;;;;;;;;;;5058138;28;20445;-81
2024/01/25 10:50:48;;;;;;;40.72;8.00;;;;;;;;;;5058923;28;20037;-81
2024/01/25 10:53:16;;;;;;;45.30;9.15;;;;;;;;;;5060943;28;20043;-80
2024/01/25 10:55:42;;;;;;;47.95;8.15;;;;;;;;;;5075053;28;20059;-80
2024/01/25 10:58:08;;;;;;;48.35;8.82;;;;;;;;;;5068020;28;20056;-80
2024/01/25 11:00:35;;;;;;;51.67;9.20;;;;;;;;;;5065567;28;20636;-80
2024/01/25 11:03:02;;;;;;;51.55;8.35;;;;;;;;;;5058527;28;20045;-80
2024/01/25 11:05:28;;;;;;;46.15;7.82;;;;;;;;;;5068907;28;20049;-80
2024/01/25 11:07:55;;;;;;;45.28;8.88;;;;;;;;;;5060236;28;20053;-81
2024/01/25 11:10:22;;;;;;;51.60;8.98;;;;;;;;;;5063293;28;20045;-80
2024/01/25 11:12:50;;;;;;;41.72;8.43;;;;;;;;;;5061303;28;20041;-80
2024/01/25 11:15:20;;;;;;;42.53;7.55;;;;;;;;;;5059338;28;20167;-81
2024/01/25 11:17:56;;;;;;;41.92;7.50;;;;;;;;;;5058325;28;20436;-80
2024/01/25 11:20:22;;;;;;;40.28;7.57;;;;;;;;;;5042645;28;20398;-81
2024/01/25 11:22:48;;;;;;;39.42;7.70;;;;;;;;;;5059508;28;20123;-80
2024/01/25 11:25:20;;;;;;;41.88;7.75;;;;;;;;;;5057619;28;20044;-81
2024/01/25 11:27:47;;;;;;;39.83;7.90;;;;;;;;;;5059234;28;20037;-81
2024/01/25 11:30:13;;;;;;;40.42;7.68;;;;;;;;;;5058602;28;20045;-81
2024/01/25 11:32:40;;;;;;;46.92;9.20;;;;;;;;;;5057676;28;20048;-81
2024/01/25 11:35:11;;;;;;;40.25;7.90;;;;;;;;;;5056436;28;20041;-81
2024/01/25 11:37:37;;;;;;;;;;;;;;;;;;5057775;28;20394;-81
2024/01/25 11:40:03;;;;;;;40.60;7.47;;;;;;;;;;5058661;28;19947;-81
2024/01/25 11:42:30;;;;;;;48.65;7.97;;;;;;;;;;5059222;28;20060;-81
2024/01/25 11:44:56;;;;;;;38.40;7.10;;;;;;;;;;5059676;28;20510;-81
2024/01/25 11:47:23;;;;;;;43.90;7.45;;;;;;;;;;5060682;28;20099;-81
2024/01/25 11:49:49;;;;;;;39.08;6.65;;;;;;;;;;5073750;28;20041;-80
2024/01/25 11:52:15;;;;;;;41.80;7.45;;;;;;;;;;5047474;28;20075;-81
2024/01/25 11:54:41;;;;;;;43.88;7.90;;;;;;;;;;5051784;28;20054;-81
2024/01/25 11:57:08;;;;;;;39.72;7.35;;;;;;;;;;5061526;28;20102;-81
2024/01/25 11:59:34;;;;;;;45.78;8.13;;;;;;;;;;5063619;28;20052;-81
2024/01/25 12:02:00;;;;;;;37.45;8.15;;;;;;;;;;5065354;28;20105;-81
2024/01/25 12:04:27;;;;;;;46.83;8.60;;;;;;;;;;5058487;28;20053;-80
2024/01/25 12:06:53;;;;;;;41.80;7.93;;;;;;;;;;5042069;28;20400;-81
2024/01/25 12:09:19;;;;;;;38.58;7.60;;;;;;;;;;5061574;28;20048;-80
2024/01/25 12:11:50;;;;;;;45.83;9.15;;;;;;;;;;5082869;28;20040;-80
2024/01/25 12:14:17;;;;;;;40.58;9.13;;;;;;;;;;5048126;28;20045;-81
2024/01/25 12:16:43;;;;;;;37.67;8.77;;;;;;;;;;5062412;28;20049;-82
2024/01/25 12:19:11;;;;;;;39.55;8.23;;;;;;;;;;5061274;28;20045;-81
2024/01/25 12:21:37;;;;;;;44.97;8.18;;;;;;;;;;5058231;28;20060;-81
2024/01/25 12:24:05;;;;;;;40.08;8.02;;;;;;;;;;5074572;28;20123;-80
2024/01/25 12:26:35;;;;;;;38.65;7.88;;;;;;;;;;5061269;28;20052;-81
2024/01/25 12:29:01;;;;;;;41.28;8.60;;;;;;;;;;5057761;28;20048;-81
2024/01/25 12:31:27;;;;;;;40.55;8.93;;;;;;;;;;5061006;28;20501;-81
2024/01/25 12:33:53;;;;;;;34.05;7.63;;;;;;;;;;5058376;28;20065;-81
2024/01/25 12:36:19;;;;;;;39.78;8.05;;;;;;;;;;5051035;28;20529;-81
2024/01/25 12:38:46;;;;;;;38.95;7.38;;;;;;;;;;5061793;28;20532;-81
2024/01/25 12:41:12;;;;;;;40.60;8.02;;;;;;;;;;5063325;28;20057;-80
2024/01/25 12:43:38;;;;;;;38.33;7.53;;;;;;;;;;5059826;28;20041;-80
2024/01/25 12:46:04;;;;;;;38.13;8.15;;;;;;;;;;5061294;28;20052;-81
2024/01/25 12:48:30;;;;;;;36.95;7.00;;;;;;;;;;5060762;28;20040;-81
2024/01/25 12:50:56;;;;;;;36.88;8.38;;;;;;;;;;5077806;28;20049;-81
2024/01/25 12:53:22;;;;;;;36.95;7.38;;;;;;;;;;5061324;28;20446;-81
2024/01/25 12:55:48;;;;;;;41.25;8.90;;;;;;;;;;5072957;28;20044;-81
2024/01/25 12:58:14;;;;;;;35.78;8.45;;;;;;;;;;5060588;28;20053;-81
2024/01/25 13:00:40;;;;;;;39.42;8.40;;;;;;;;;;5059858;28;20157;-81
2024/01/25 13:03:09;;;;;;;42.60;8.75;;;;;;;;;;5077265;28;20078;-81
2024/01/25 13:05:36;;;;;;;39.15;7.80;;;;;;;;;;5060975;28;20086;-81
2024/01/25 13:08:02;;;;;;;32.95;6.75;;;;;;;;;;5059423;28;20052;-80
2024/01/25 13:10:28;;;;;;;33.83;6.82;;;;;;;;;;5060842;28;20059;-81
2024/01/25 13:12:55;;;;;;;33.65;6.93;;;;;;;;;;5041954;28;20168;-81
2024/01/25 13:15:21;;;;;;;38.92;7.38;;;;;;;;;;5061715;28;20041;-80
2024/01/25 13:17:47;;;;;;;42.30;7.95;;;;;;;;;;5061530;28;20411;-81
2024/01/25 13:20:13;;;;;;;35.40;7.13;;;;;;;;;;5063046;28;20048;-81
2024/01/25 13:22:39;;;;;;;34.70;7.30;;;;;;;;;;5056330;28;20041;-81
2024/01/25 13:25:05;;;;;;;34.08;6.90;;;;;;;;;;5059754;28;20138;-81
2024/01/25 13:27:32;;;;;;;39.05;7.35;;;;;;;;;;5060400;28;20041;-81
2024/01/25 13:29:58;;;;;;;41.95;7.32;;;;;;;;;;5062706;28;20040;-81
2024/01/25 13:32:24;;;;;;;37.42;7.85;;;;;;;;;;5060429;28;20425;-81
2024/01/25 13:34:50;;;;;;;35.53;7.15;;;;;;;;;;5059731;28;20471;-81
2024/01/25 13:37:16;;;;;;;32.08;6.70;;;;;;;;;;5061651;28;20501;-82
2024/01/25 13:39:42;;;;;;;36.38;8.23;;;;;;;;;;5060288;28;20055;-82
2024/01/25 13:42:08;;;;;;;35.55;7.53;;;;;;;;;;5060048;28;20089;-80
2024/01/25 13:44:35;;;;;;;49.20;8.35;;;;;;;;;;5060444;28;20056;-81
2024/01/25 13:47:01;;;;;;;38.35;7.78;;;;;;;;;;5064874;28;20041;-81
2024/01/25 13:49:27;;;;;;;35.47;6.75;;;;;;;;;;5059067;28;20052;-81
2024/01/25 13:51:54;;;;;;;37.17;7.05;;;;;;;;;;5060901;28;20406;-82
2024/01/25 13:54:20;;;;;;;41.45;7.53;;;;;;;;;;5057874;28;20043;-81
2024/01/25 13:56:46;;;;;;;37.28;7.28;;;;;;;;;;5061110;28;20079;-81
2024/01/25 13:59:12;;;;;;;38.42;6.82;;;;;;;;;;5055314;28;20056;-81
2024/01/25 14:01:38;;;;;;;34.78;6.93;;;;;;;;;;5068881;28;20075;-80
2024/01/25 14:04:05;;;;;;;38.78;7.38;;;;;;;;;;5069197;28;20045;-81
2024/01/25 14:06:31;;;;;;;44.22;8.15;;;;;;;;;;5062122;28;20055;-80
2024/01/25 14:08:57;;;;;;;43.13;7.47;;;;;;;;;;5060156;28;20041;-80
2024/01/25 14:11:23;;;;;;;38.55;8.07;;;;;;;;;;5059465;28;20058;-81
2024/01/25 14:13:49;;;;;;;33.63;7.03;;;;;;;;;;5058951;28;20052;-81
2024/01/25 14:16:17;;;;;;;42.35;7.78;;;;;;;;;;5058341;28;20048;-81
2024/01/25 14:18:44;;;;;;;37.17;7.57;;;;;;;;;;5041346;28;20061;-81
2024/01/25 14:21:10;;;;;;;39.58;7.32;;;;;;;;;;5056180;28;20129;-80
2024/01/25 14:23:36;;;;;;;37.13;7.43;;;;;;;;;;5057737;28;20056;-81
2024/01/25 14:26:03;;;;;;;38.83;7.40;;;;;;;;;;5059043;28;20083;-80